KAVX Airport Information

Runway Information
Runway 04 Length 3000 ft width 60 ft
Elevation 1602 ft Threshold 120 ft Heading 54
Runway 22 Length 3000 ft Width 60 ft
Elevation 1602 ft Threshold 149 ft Heading 234
Airport Frequencies
Type A/D Name SOCAL APP/ Frequency 127.4 MHZ
Type UNIC Name CTAF/UNICO Frequency 122.7 MHZ
Airport Navaids
Airport Weather Information & NOTAM
ADDS - METARS form results

(1131 UTC 21 April 2018)
 
METAR text: KAVX 211051Z AUTO 00000KT 10SM CLR 18/04 A3007 RMK AO2 SLP168 T01780039 $
Conditions at: KAVX (AVALON , CA, US) observed 1051 UTC 21 April 2018
Temperature: 17.8°C (64°F)
Dewpoint: 3.9°C (39°F) [RH = 40%]
Pressure (altimeter): 30.07 inches Hg (1018.4 mb)
[Sea-level pressure: 1016.8 mb]
Winds: calm
Visibility: 10 or more miles (16+ km)
Ceiling: at least 12,000 feet AGL
Clouds: sky clear below 12,000 feet AGL
Weather:
SOME DATA ABOVE MAY BE INACCURATE!!!
"$" is an indication the sensor requires maintenance